sensor_id;sensor_type;location;lat;lon;timestamp;temperature;humidity
15916;DHT22;8057;47.830;-3.870;2023-05-10T00:03:51;12.80;99.90
15916;DHT22;8057;47.830;-3.870;2023-05-10T00:08:01;12.70;99.90
15916;DHT22;8057;47.830;-3.870;2023-05-10T00:12:11;12.70;99.90
15916;DHT22;8057;47.830;-3.870;2023-05-10T00:16:20;12.80;99.90
15916;DHT22;8057;47.830;-3.870;2023-05-10T00:20:32;12.80;99.90
15916;DHT22;8057;47.830;-3.870;2023-05-10T00:24:41;12.70;99.90
15916;DHT22;8057;47.830;-3.870;2023-05-10T00:28:51;12.70;99.90
15916;DHT22;8057;47.830;-3.870;2023-05-10T00:33:01;12.70;99.90
15916;DHT22;8057;47.830;-3.870;2023-05-10T00:37:13;12.70;99.90
15916;DHT22;8057;47.830;-3.870;2023-05-10T00:41:22;12.70;99.90
15916;DHT22;8057;47.830;-3.870;2023-05-10T00:45:33;12.70;99.90
15916;DHT22;8057;47.830;-3.870;2023-05-10T00:49:43;12.70;99.90
15916;DHT22;8057;47.830;-3.870;2023-05-10T00:53:55;12.70;99.90
15916;DHT22;8057;47.830;-3.870;2023-05-10T00:58:06;12.70;99.90
15916;DHT22;8057;47.830;-3.870;2023-05-10T01:02:15;12.80;99.90
15916;DHT22;8057;47.830;-3.870;2023-05-10T01:06:25;12.80;99.90
15916;DHT22;8057;47.830;-3.870;2023-05-10T01:10:37;12.80;99.90
15916;DHT22;8057;47.830;-3.870;2023-05-10T01:14:48;12.90;99.90
15916;DHT22;8057;47.830;-3.870;2023-05-10T01:18:58;12.90;99.90
15916;DHT22;8057;47.830;-3.870;2023-05-10T01:23:27;13.00;99.90
15916;DHT22;8057;47.830;-3.870;2023-05-10T01:32:36;13.00;99.90
15916;DHT22;8057;47.830;-3.870;2023-05-10T01:36:53;13.00;99.90
15916;DHT22;8057;47.830;-3.870;2023-05-10T01:41:11;13.00;99.90
15916;DHT22;8057;47.830;-3.870;2023-05-10T01:45:28;12.90;99.90
15916;DHT22;8057;47.830;-3.870;2023-05-10T01:49:44;13.00;99.90
15916;DHT22;8057;47.830;-3.870;2023-05-10T01:54:00;13.00;99.90
15916;DHT22;8057;47.830;-3.870;2023-05-10T01:58:13;12.90;99.90
15916;DHT22;8057;47.830;-3.870;2023-05-10T02:02:25;12.90;99.90
15916;DHT22;8057;47.830;-3.870;2023-05-10T02:06:38;12.90;99.90
15916;DHT22;8057;47.830;-3.870;2023-05-10T02:10:50;12.90;99.90
15916;DHT22;8057;47.830;-3.870;2023-05-10T02:15:02;13.00;99.90
15916;DHT22;8057;47.830;-3.870;2023-05-10T02:19:14;13.10;99.90
15916;DHT22;8057;47.830;-3.870;2023-05-10T02:23:26;13.10;99.90
15916;DHT22;8057;47.830;-3.870;2023-05-10T02:27:37;13.20;99.90
15916;DHT22;8057;47.830;-3.870;2023-05-10T02:31:46;13.20;99.90
15916;DHT22;8057;47.830;-3.870;2023-05-10T02:35:56;13.20;99.90
15916;DHT22;8057;47.830;-3.870;2023-05-10T02:40:09;13.10;99.90
15916;DHT22;8057;47.830;-3.870;2023-05-10T02:44:19;13.10;99.90
15916;DHT22;8057;47.830;-3.870;2023-05-10T02:48:29;12.90;99.90
15916;DHT22;8057;47.830;-3.870;2023-05-10T02:52:40;12.80;99.90
15916;DHT22;8057;47.830;-3.870;2023-05-10T02:56:56;12.80;99.90
15916;DHT22;8057;47.830;-3.870;2023-05-10T03:01:06;12.70;99.90
15916;DHT22;8057;47.830;-3.870;2023-05-10T03:05:15;12.60;99.90
15916;DHT22;8057;47.830;-3.870;2023-05-10T03:09:24;12.60;99.90
15916;DHT22;8057;47.830;-3.870;2023-05-10T03:13:42;12.60;99.90
15916;DHT22;8057;47.830;-3.870;2023-05-10T03:17:56;12.60;99.90
15916;DHT22;8057;47.830;-3.870;2023-05-10T03:22:11;12.60;99.90
15916;DHT22;8057;47.830;-3.870;2023-05-10T03:26:28;12.60;99.90
15916;DHT22;8057;47.830;-3.870;2023-05-10T03:30:40;12.60;99.90
15916;DHT22;8057;47.830;-3.870;2023-05-10T03:34:49;12.60;99.90
15916;DHT22;8057;47.830;-3.870;2023-05-10T03:38:58;12.50;99.90
15916;DHT22;8057;47.830;-3.870;2023-05-10T03:43:07;12.50;99.90
15916;DHT22;8057;47.830;-3.870;2023-05-10T03:47:18;12.40;99.90
15916;DHT22;8057;47.830;-3.870;2023-05-10T03:51:27;12.50;99.90
15916;DHT22;8057;47.830;-3.870;2023-05-10T03:55:38;12.50;99.90
15916;DHT22;8057;47.830;-3.870;2023-05-10T03:59:47;12.50;99.90
15916;DHT22;8057;47.830;-3.870;2023-05-10T04:03:58;12.50;99.90
15916;DHT22;8057;47.830;-3.870;2023-05-10T04:08:07;12.50;99.90
15916;DHT22;8057;47.830;-3.870;2023-05-10T04:12:16;12.50;99.90
15916;DHT22;8057;47.830;-3.870;2023-05-10T04:16:25;12.50;99.90
15916;DHT22;8057;47.830;-3.870;2023-05-10T04:20:36;12.60;99.90
15916;DHT22;8057;47.830;-3.870;2023-05-10T04:24:45;12.50;99.90
15916;DHT22;8057;47.830;-3.870;2023-05-10T04:28:55;12.60;99.90
15916;DHT22;8057;47.830;-3.870;2023-05-10T04:33:04;12.60;99.90
15916;DHT22;8057;47.830;-3.870;2023-05-10T04:37:15;12.60;99.90
15916;DHT22;8057;47.830;-3.870;2023-05-10T04:41:24;12.70;99.90
15916;DHT22;8057;47.830;-3.870;2023-05-10T04:45:33;12.60;99.90
15916;DHT22;8057;47.830;-3.870;2023-05-10T04:49:42;12.60;99.90
15916;DHT22;8057;47.830;-3.870;2023-05-10T04:53:53;12.60;99.90
15916;DHT22;8057;47.830;-3.870;2023-05-10T04:58:12;12.70;99.90
15916;DHT22;8057;47.830;-3.870;2023-05-10T05:02:21;12.70;99.90
15916;DHT22;8057;47.830;-3.870;2023-05-10T05:06:31;12.80;99.90
15916;DHT22;8057;47.830;-3.870;2023-05-10T05:10:41;12.80;99.90
15916;DHT22;8057;47.830;-3.870;2023-05-10T05:14:50;12.90;99.90
15916;DHT22;8057;47.830;-3.870;2023-05-10T05:19:00;12.90;99.90
15916;DHT22;8057;47.830;-3.870;2023-05-10T05:23:09;12.90;99.90
15916;DHT22;8057;47.830;-3.870;2023-05-10T05:27:20;12.90;99.90
15916;DHT22;8057;47.830;-3.870;2023-05-10T05:31:31;13.00;99.90
15916;DHT22;8057;47.830;-3.870;2023-05-10T05:35:40;13.00;99.90
15916;DHT22;8057;47.830;-3.870;2023-05-10T05:39:50;13.00;99.90
15916;DHT22;8057;47.830;-3.870;2023-05-10T05:44:00;13.00;99.90
15916;DHT22;8057;47.830;-3.870;2023-05-10T05:48:09;13.00;99.90
15916;DHT22;8057;47.830;-3.870;2023-05-10T05:52:18;13.00;99.90
15916;DHT22;8057;47.830;-3.870;2023-05-10T05:56:28;13.00;99.90
15916;DHT22;8057;47.830;-3.870;2023-05-10T06:00:39;13.00;99.90
15916;DHT22;8057;47.830;-3.870;2023-05-10T06:04:49;13.00;99.90
15916;DHT22;8057;47.830;-3.870;2023-05-10T06:08:59;13.10;99.90
15916;DHT22;8057;47.830;-3.870;2023-05-10T06:13:08;13.10;99.90
15916;DHT22;8057;47.830;-3.870;2023-05-10T06:17:19;13.10;99.90
15916;DHT22;8057;47.830;-3.870;2023-05-10T06:21:29;13.20;99.90
15916;DHT22;8057;47.830;-3.870;2023-05-10T06:25:38;13.20;99.90
15916;DHT22;8057;47.830;-3.870;2023-05-10T06:29:47;13.20;99.90
15916;DHT22;8057;47.830;-3.870;2023-05-10T06:34:04;13.30;99.90
15916;DHT22;8057;47.830;-3.870;2023-05-10T06:38:15;13.40;99.90
15916;DHT22;8057;47.830;-3.870;2023-05-10T06:42:24;13.60;99.90
15916;DHT22;8057;47.830;-3.870;2023-05-10T06:46:35;13.60;99.90
15916;DHT22;8057;47.830;-3.870;2023-05-10T07:05:26;13.80;99.90
15916;DHT22;8057;47.830;-3.870;2023-05-10T07:09:40;13.80;99.90
15916;DHT22;8057;47.830;-3.870;2023-05-10T07:18:33;13.80;99.90
15916;DHT22;8057;47.830;-3.870;2023-05-10T07:56:59;14.20;99.90
15916;DHT22;8057;47.830;-3.870;2023-05-10T08:26:06;14.20;99.90
15916;DHT22;8057;47.830;-3.870;2023-05-10T08:30:17;14.30;99.90
15916;DHT22;8057;47.830;-3.870;2023-05-10T08:34:26;14.40;99.90
15916;DHT22;8057;47.830;-3.870;2023-05-10T08:43:05;14.80;99.90
15916;DHT22;8057;47.830;-3.870;2023-05-10T08:47:18;15.00;99.90
15916;DHT22;8057;47.830;-3.870;2023-05-10T08:51:31;15.20;99.90
15916;DHT22;8057;47.830;-3.870;2023-05-10T08:55:44;15.40;99.90
15916;DHT22;8057;47.830;-3.870;2023-05-10T09:38:25;16.40;99.90
15916;DHT22;8057;47.830;-3.870;2023-05-10T10:11:07;16.90;99.90
15916;DHT22;8057;47.830;-3.870;2023-05-10T10:15:20;17.00;99.90
15916;DHT22;8057;47.830;-3.870;2023-05-10T10:19:31;16.80;99.90
15916;DHT22;8057;47.830;-3.870;2023-05-10T11:20:55;15.50;99.90
15916;DHT22;8057;47.830;-3.870;2023-05-10T11:25:06;15.60;99.90
15916;DHT22;8057;47.830;-3.870;2023-05-10T11:29:36;15.70;99.90
15916;DHT22;8057;47.830;-3.870;2023-05-10T11:34:24;16.00;99.90
15916;DHT22;8057;47.830;-3.870;2023-05-10T11:38:36;16.10;99.90
15916;DHT22;8057;47.830;-3.870;2023-05-10T11:43:00;16.10;99.90
15916;DHT22;8057;47.830;-3.870;2023-05-10T18:33:11;14.30;99.90
